sensor_id;sensor_type;location;lat;lon;timestamp;P1;durP1;ratioP1;P2;durP2;ratioP2
36815;SDS011;71982;52.294;6.760;2023-12-20T00:00:17;21.77;;;5.90;;
36815;SDS011;71982;52.294;6.760;2023-12-20T00:02:44;19.45;;;6.05;;
36815;SDS011;71982;52.294;6.760;2023-12-20T00:05:13;22.10;;;5.70;;
36815;SDS011;71982;52.294;6.760;2023-12-20T00:07:40;29.08;;;6.22;;
36815;SDS011;71982;52.294;6.760;2023-12-20T00:10:07;17.27;;;5.35;;
36815;SDS011;71982;52.294;6.760;2023-12-20T00:12:34;25.15;;;6.13;;
36815;SDS011;71982;52.294;6.760;2023-12-20T00:15:01;19.40;;;5.10;;
36815;SDS011;71982;52.294;6.760;2023-12-20T00:17:28;19.30;;;5.60;;
36815;SDS011;71982;52.294;6.760;2023-12-20T00:19:54;16.88;;;4.85;;
36815;SDS011;71982;52.294;6.760;2023-12-20T00:22:22;20.15;;;4.65;;
36815;SDS011;71982;52.294;6.760;2023-12-20T00:24:49;10.50;;;4.13;;
36815;SDS011;71982;52.294;6.760;2023-12-20T00:27:16;19.55;;;4.22;;
36815;SDS011;71982;52.294;6.760;2023-12-20T00:29:43;22.05;;;5.00;;
36815;SDS011;71982;52.294;6.760;2023-12-20T00:32:12;25.50;;;5.53;;
36815;SDS011;71982;52.294;6.760;2023-12-20T00:34:39;20.90;;;5.25;;
36815;SDS011;71982;52.294;6.760;2023-12-20T00:37:06;24.83;;;5.05;;
36815;SDS011;71982;52.294;6.760;2023-12-20T00:39:34;17.98;;;5.00;;
36815;SDS011;71982;52.294;6.760;2023-12-20T00:42:01;34.65;;;7.18;;
36815;SDS011;71982;52.294;6.760;2023-12-20T00:44:28;19.30;;;4.88;;
36815;SDS011;71982;52.294;6.760;2023-12-20T00:46:54;22.90;;;6.05;;
36815;SDS011;71982;52.294;6.760;2023-12-20T00:49:21;23.83;;;6.55;;
36815;SDS011;71982;52.294;6.760;2023-12-20T00:51:48;34.00;;;7.20;;
36815;SDS011;71982;52.294;6.760;2023-12-20T00:54:15;28.25;;;7.13;;
36815;SDS011;71982;52.294;6.760;2023-12-20T00:56:43;29.20;;;7.15;;
36815;SDS011;71982;52.294;6.760;2023-12-20T00:59:10;33.58;;;7.18;;
36815;SDS011;71982;52.294;6.760;2023-12-20T01:01:37;28.85;;;6.55;;
36815;SDS011;71982;52.294;6.760;2023-12-20T01:04:04;27.20;;;8.75;;
36815;SDS011;71982;52.294;6.760;2023-12-20T01:06:31;28.92;;;8.60;;
36815;SDS011;71982;52.294;6.760;2023-12-20T01:08:58;35.97;;;9.85;;
36815;SDS011;71982;52.294;6.760;2023-12-20T01:11:24;27.55;;;8.77;;
36815;SDS011;71982;52.294;6.760;2023-12-20T01:13:52;36.55;;;9.73;;
36815;SDS011;71982;52.294;6.760;2023-12-20T01:16:20;29.70;;;11.02;;
36815;SDS011;71982;52.294;6.760;2023-12-20T01:18:47;26.08;;;10.25;;
36815;SDS011;71982;52.294;6.760;2023-12-20T01:21:14;40.75;;;9.77;;
36815;SDS011;71982;52.294;6.760;2023-12-20T01:23:41;38.88;;;12.27;;
36815;SDS011;71982;52.294;6.760;2023-12-20T01:26:08;36.30;;;10.05;;
36815;SDS011;71982;52.294;6.760;2023-12-20T01:28:35;28.45;;;10.07;;
36815;SDS011;71982;52.294;6.760;2023-12-20T01:31:04;34.95;;;11.50;;
36815;SDS011;71982;52.294;6.760;2023-12-20T01:33:31;32.10;;;9.10;;
36815;SDS011;71982;52.294;6.760;2023-12-20T01:35:57;21.52;;;9.10;;
36815;SDS011;71982;52.294;6.760;2023-12-20T01:38:24;36.53;;;8.68;;
36815;SDS011;71982;52.294;6.760;2023-12-20T01:40:51;34.28;;;11.10;;
36815;SDS011;71982;52.294;6.760;2023-12-20T01:43:18;29.55;;;8.75;;
36815;SDS011;71982;52.294;6.760;2023-12-20T01:45:44;31.10;;;9.40;;
36815;SDS011;71982;52.294;6.760;2023-12-20T01:48:13;30.40;;;8.43;;
36815;SDS011;71982;52.294;6.760;2023-12-20T01:50:42;37.22;;;9.10;;
36815;SDS011;71982;52.294;6.760;2023-12-20T01:53:10;29.35;;;8.75;;
36815;SDS011;71982;52.294;6.760;2023-12-20T01:55:38;35.75;;;8.60;;
36815;SDS011;71982;52.294;6.760;2023-12-20T01:58:06;29.23;;;7.88;;
36815;SDS011;71982;52.294;6.760;2023-12-20T02:00:35;32.72;;;7.85;;
36815;SDS011;71982;52.294;6.760;2023-12-20T02:03:02;30.23;;;7.13;;
36815;SDS011;71982;52.294;6.760;2023-12-20T02:05:31;21.70;;;6.95;;
36815;SDS011;71982;52.294;6.760;2023-12-20T02:07:59;19.73;;;6.80;;
36815;SDS011;71982;52.294;6.760;2023-12-20T02:10:26;32.85;;;6.68;;
36815;SDS011;71982;52.294;6.760;2023-12-20T02:12:54;29.55;;;6.07;;
36815;SDS011;71982;52.294;6.760;2023-12-20T02:15:20;26.58;;;7.05;;
36815;SDS011;71982;52.294;6.760;2023-12-20T02:17:47;24.73;;;5.88;;
36815;SDS011;71982;52.294;6.760;2023-12-20T02:20:15;32.45;;;5.30;;
36815;SDS011;71982;52.294;6.760;2023-12-20T02:22:43;28.48;;;6.60;;
36815;SDS011;71982;52.294;6.760;2023-12-20T02:25:10;30.05;;;5.25;;
36815;SDS011;71982;52.294;6.760;2023-12-20T02:27:37;19.50;;;4.30;;
36815;SDS011;71982;52.294;6.760;2023-12-20T02:30:05;28.48;;;5.38;;
36815;SDS011;71982;52.294;6.760;2023-12-20T02:32:33;34.42;;;4.82;;
36815;SDS011;71982;52.294;6.760;2023-12-20T02:34:59;35.45;;;5.60;;
36815;SDS011;71982;52.294;6.760;2023-12-20T02:37:26;27.25;;;5.50;;
36815;SDS011;71982;52.294;6.760;2023-12-20T02:39:54;26.35;;;5.40;;
36815;SDS011;71982;52.294;6.760;2023-12-20T02:42:21;25.50;;;5.28;;
36815;SDS011;71982;52.294;6.760;2023-12-20T02:44:47;29.38;;;5.53;;
36815;SDS011;71982;52.294;6.760;2023-12-20T02:47:14;29.23;;;5.53;;
36815;SDS011;71982;52.294;6.760;2023-12-20T02:49:41;26.77;;;5.53;;
36815;SDS011;71982;52.294;6.760;2023-12-20T02:52:08;33.83;;;5.13;;
36815;SDS011;71982;52.294;6.760;2023-12-20T02:54:35;22.20;;;4.43;;
36815;SDS011;71982;52.294;6.760;2023-12-20T02:57:03;31.30;;;5.72;;
36815;SDS011;71982;52.294;6.760;2023-12-20T02:59:30;27.85;;;6.88;;
36815;SDS011;71982;52.294;6.760;2023-12-20T03:01:56;30.27;;;5.45;;
36815;SDS011;71982;52.294;6.760;2023-12-20T03:04:23;20.17;;;4.15;;
36815;SDS011;71982;52.294;6.760;2023-12-20T03:06:50;24.23;;;5.35;;
36815;SDS011;71982;52.294;6.760;2023-12-20T03:09:17;30.98;;;5.57;;
36815;SDS011;71982;52.294;6.760;2023-12-20T03:11:43;28.83;;;4.35;;
36815;SDS011;71982;52.294;6.760;2023-12-20T03:14:12;36.65;;;5.55;;
36815;SDS011;71982;52.294;6.760;2023-12-20T03:16:38;20.33;;;4.78;;
36815;SDS011;71982;52.294;6.760;2023-12-20T03:19:05;31.52;;;5.05;;
36815;SDS011;71982;52.294;6.760;2023-12-20T03:21:32;28.45;;;4.72;;
36815;SDS011;71982;52.294;6.760;2023-12-20T03:23:59;23.75;;;5.95;;
36815;SDS011;71982;52.294;6.760;2023-12-20T03:26:25;23.88;;;4.32;;
36815;SDS011;71982;52.294;6.760;2023-12-20T03:28:52;28.23;;;4.75;;
36815;SDS011;71982;52.294;6.760;2023-12-20T03:31:20;27.52;;;5.05;;
36815;SDS011;71982;52.294;6.760;2023-12-20T03:33:47;29.20;;;4.10;;
36815;SDS011;71982;52.294;6.760;2023-12-20T03:36:14;31.80;;;4.70;;
36815;SDS011;71982;52.294;6.760;2023-12-20T03:38:41;35.38;;;5.47;;
36815;SDS011;71982;52.294;6.760;2023-12-20T03:41:07;39.45;;;4.50;;
36815;SDS011;71982;52.294;6.760;2023-12-20T03:43:34;29.85;;;4.30;;
36815;SDS011;71982;52.294;6.760;2023-12-20T03:46:01;33.92;;;4.47;;
36815;SDS011;71982;52.294;6.760;2023-12-20T03:48:30;37.72;;;6.35;;
36815;SDS011;71982;52.294;6.760;2023-12-20T03:50:57;29.40;;;5.03;;
36815;SDS011;71982;52.294;6.760;2023-12-20T03:53:24;23.52;;;5.13;;
36815;SDS011;71982;52.294;6.760;2023-12-20T03:55:50;47.75;;;5.63;;
36815;SDS011;71982;52.294;6.760;2023-12-20T03:58:17;32.20;;;4.10;;
36815;SDS011;71982;52.294;6.760;2023-12-20T04:00:44;36.83;;;5.40;;
36815;SDS011;71982;52.294;6.760;2023-12-20T04:03:10;25.80;;;4.95;;
36815;SDS011;71982;52.294;6.760;2023-12-20T04:05:40;25.67;;;5.95;;
36815;SDS011;71982;52.294;6.760;2023-12-20T04:08:07;31.00;;;5.55;;
36815;SDS011;71982;52.294;6.760;2023-12-20T04:10:35;36.05;;;5.22;;
36815;SDS011;71982;52.294;6.760;2023-12-20T04:13:02;33.47;;;5.25;;
36815;SDS011;71982;52.294;6.760;2023-12-20T04:15:29;36.38;;;4.95;;
36815;SDS011;71982;52.294;6.760;2023-12-20T04:17:56;33.22;;;6.80;;
36815;SDS011;71982;52.294;6.760;2023-12-20T04:20:23;29.48;;;4.38;;
36815;SDS011;71982;52.294;6.760;2023-12-20T04:22:51;23.50;;;6.10;;
36815;SDS011;71982;52.294;6.760;2023-12-20T04:25:17;27.27;;;4.55;;
36815;SDS011;71982;52.294;6.760;2023-12-20T04:27:44;25.92;;;4.70;;
36815;SDS011;71982;52.294;6.760;2023-12-20T04:30:11;33.88;;;6.55;;
36815;SDS011;71982;52.294;6.760;2023-12-20T04:32:38;30.15;;;5.80;;
36815;SDS011;71982;52.294;6.760;2023-12-20T04:35:05;41.83;;;5.82;;
36815;SDS011;71982;52.294;6.760;2023-12-20T04:37:32;27.05;;;5.00;;
36815;SDS011;71982;52.294;6.760;2023-12-20T04:40:00;35.05;;;4.40;;
36815;SDS011;71982;52.294;6.760;2023-12-20T04:42:27;29.48;;;5.22;;
36815;SDS011;71982;52.294;6.760;2023-12-20T04:44:54;33.35;;;5.30;;
36815;SDS011;71982;52.294;6.760;2023-12-20T04:47:20;19.75;;;3.97;;
36815;SDS011;71982;52.294;6.760;2023-12-20T04:49:47;35.08;;;6.80;;
36815;SDS011;71982;52.294;6.760;2023-12-20T04:52:14;30.65;;;4.40;;
36815;SDS011;71982;52.294;6.760;2023-12-20T04:54:41;30.13;;;5.10;;
36815;SDS011;71982;52.294;6.760;2023-12-20T04:57:09;21.58;;;4.97;;
36815;SDS011;71982;52.294;6.760;2023-12-20T04:59:36;34.13;;;4.63;;
36815;SDS011;71982;52.294;6.760;2023-12-20T05:02:02;31.92;;;4.38;;
36815;SDS011;71982;52.294;6.760;2023-12-20T05:04:29;29.90;;;4.55;;
36815;SDS011;71982;52.294;6.760;2023-12-20T05:06:56;25.50;;;5.30;;
36815;SDS011;71982;52.294;6.760;2023-12-20T05:09:23;28.20;;;4.75;;
36815;SDS011;71982;52.294;6.760;2023-12-20T05:11:50;28.63;;;4.97;;
36815;SDS011;71982;52.294;6.760;2023-12-20T05:14:18;35.38;;;5.57;;
36815;SDS011;71982;52.294;6.760;2023-12-20T05:16:44;22.85;;;3.90;;
36815;SDS011;71982;52.294;6.760;2023-12-20T05:19:11;25.00;;;4.32;;
36815;SDS011;71982;52.294;6.760;2023-12-20T05:21:39;39.80;;;5.72;;
36815;SDS011;71982;52.294;6.760;2023-12-20T05:24:05;38.47;;;7.32;;
36815;SDS011;71982;52.294;6.760;2023-12-20T05:26:32;37.33;;;4.82;;
36815;SDS011;71982;52.294;6.760;2023-12-20T05:28:59;35.88;;;5.20;;
36815;SDS011;71982;52.294;6.760;2023-12-20T05:31:27;38.70;;;5.13;;
36815;SDS011;71982;52.294;6.760;2023-12-20T05:33:54;35.33;;;3.97;;
36815;SDS011;71982;52.294;6.760;2023-12-20T05:36:21;41.85;;;4.65;;
36815;SDS011;71982;52.294;6.760;2023-12-20T05:38:47;34.28;;;6.05;;
36815;SDS011;71982;52.294;6.760;2023-12-20T05:41:14;33.45;;;5.28;;
36815;SDS011;71982;52.294;6.760;2023-12-20T05:43:41;31.50;;;4.45;;
36815;SDS011;71982;52.294;6.760;2023-12-20T05:46:09;34.10;;;5.55;;
36815;SDS011;71982;52.294;6.760;2023-12-20T05:48:37;23.73;;;3.42;;
36815;SDS011;71982;52.294;6.760;2023-12-20T05:51:04;30.42;;;4.93;;
36815;SDS011;71982;52.294;6.760;2023-12-20T05:53:31;28.65;;;5.10;;
36815;SDS011;71982;52.294;6.760;2023-12-20T05:55:58;35.78;;;5.05;;
36815;SDS011;71982;52.294;6.760;2023-12-20T05:58:25;27.48;;;5.15;;
36815;SDS011;71982;52.294;6.760;2023-12-20T06:00:51;26.95;;;5.22;;
36815;SDS011;71982;52.294;6.760;2023-12-20T06:03:18;26.30;;;3.80;;
36815;SDS011;71982;52.294;6.760;2023-12-20T06:05:46;33.05;;;4.40;;
36815;SDS011;71982;52.294;6.760;2023-12-20T06:08:13;27.83;;;5.50;;
36815;SDS011;71982;52.294;6.760;2023-12-20T06:10:40;25.48;;;4.15;;
36815;SDS011;71982;52.294;6.760;2023-12-20T06:13:06;30.90;;;6.45;;
36815;SDS011;71982;52.294;6.760;2023-12-20T06:15:33;26.70;;;4.60;;
36815;SDS011;71982;52.294;6.760;2023-12-20T06:18:00;22.98;;;4.63;;
36815;SDS011;71982;52.294;6.760;2023-12-20T06:20:27;18.88;;;4.10;;
36815;SDS011;71982;52.294;6.760;2023-12-20T06:22:55;25.40;;;5.10;;
36815;SDS011;71982;52.294;6.760;2023-12-20T06:25:22;26.77;;;4.72;;
36815;SDS011;71982;52.294;6.760;2023-12-20T06:27:48;25.02;;;5.20;;
36815;SDS011;71982;52.294;6.760;2023-12-20T06:30:15;22.52;;;4.78;;
36815;SDS011;71982;52.294;6.760;2023-12-20T06:32:42;30.63;;;4.38;;
36815;SDS011;71982;52.294;6.760;2023-12-20T06:35:09;22.27;;;5.45;;
36815;SDS011;71982;52.294;6.760;2023-12-20T06:37:36;18.90;;;3.55;;
36815;SDS011;71982;52.294;6.760;2023-12-20T06:40:05;29.85;;;4.47;;
36815;SDS011;71982;52.294;6.760;2023-12-20T06:42:32;23.42;;;4.50;;
36815;SDS011;71982;52.294;6.760;2023-12-20T06:44:59;32.95;;;4.72;;
36815;SDS011;71982;52.294;6.760;2023-12-20T06:47:26;29.73;;;4.47;;
36815;SDS011;71982;52.294;6.760;2023-12-20T06:49:53;24.80;;;4.18;;
36815;SDS011;71982;52.294;6.760;2023-12-20T06:52:19;28.17;;;4.80;;
36815;SDS011;71982;52.294;6.760;2023-12-20T06:54:48;36.40;;;5.88;;
36815;SDS011;71982;52.294;6.760;2023-12-20T06:57:16;26.00;;;5.38;;
36815;SDS011;71982;52.294;6.760;2023-12-20T06:59:44;22.88;;;4.03;;
36815;SDS011;71982;52.294;6.760;2023-12-20T07:02:11;32.80;;;4.20;;
36815;SDS011;71982;52.294;6.760;2023-12-20T07:04:38;38.83;;;4.97;;
36815;SDS011;71982;52.294;6.760;2023-12-20T07:07:05;44.13;;;7.45;;
36815;SDS011;71982;52.294;6.760;2023-12-20T07:09:32;26.63;;;4.70;;
36815;SDS011;71982;52.294;6.760;2023-12-20T07:11:59;25.83;;;5.03;;
36815;SDS011;71982;52.294;6.760;2023-12-20T07:14:27;28.73;;;5.70;;
36815;SDS011;71982;52.294;6.760;2023-12-20T07:16:54;29.17;;;5.22;;
36815;SDS011;71982;52.294;6.760;2023-12-20T07:19:21;22.73;;;4.15;;
36815;SDS011;71982;52.294;6.760;2023-12-20T07:21:47;33.95;;;5.43;;
36815;SDS011;71982;52.294;6.760;2023-12-20T07:24:14;27.85;;;5.55;;
36815;SDS011;71982;52.294;6.760;2023-12-20T07:26:41;30.23;;;3.58;;
36815;SDS011;71982;52.294;6.760;2023-12-20T07:29:08;36.22;;;5.00;;
36815;SDS011;71982;52.294;6.760;2023-12-20T07:31:36;28.63;;;6.10;;
36815;SDS011;71982;52.294;6.760;2023-12-20T07:34:03;20.60;;;4.40;;
36815;SDS011;71982;52.294;6.760;2023-12-20T07:36:30;32.28;;;5.03;;
36815;SDS011;71982;52.294;6.760;2023-12-20T07:38:57;20.05;;;4.35;;
36815;SDS011;71982;52.294;6.760;2023-12-20T07:41:24;29.83;;;4.68;;
36815;SDS011;71982;52.294;6.760;2023-12-20T07:43:50;24.90;;;6.15;;
36815;SDS011;71982;52.294;6.760;2023-12-20T07:46:18;29.17;;;5.18;;
36815;SDS011;71982;52.294;6.760;2023-12-20T07:48:50;27.00;;;4.25;;
36815;SDS011;71982;52.294;6.760;2023-12-20T07:51:16;26.35;;;3.90;;
36815;SDS011;71982;52.294;6.760;2023-12-20T07:53:44;30.15;;;4.97;;
36815;SDS011;71982;52.294;6.760;2023-12-20T07:56:14;23.25;;;5.05;;
36815;SDS011;71982;52.294;6.760;2023-12-20T07:58:41;24.88;;;4.28;;
36815;SDS011;71982;52.294;6.760;2023-12-20T08:01:08;31.17;;;4.35;;
36815;SDS011;71982;52.294;6.760;2023-12-20T08:03:35;22.50;;;4.03;;
36815;SDS011;71982;52.294;6.760;2023-12-20T08:06:04;25.52;;;5.15;;
36815;SDS011;71982;52.294;6.760;2023-12-20T08:08:30;22.83;;;4.20;;
36815;SDS011;71982;52.294;6.760;2023-12-20T08:10:57;28.00;;;4.03;;
36815;SDS011;71982;52.294;6.760;2023-12-20T08:13:25;26.35;;;4.72;;
36815;SDS011;71982;52.294;6.760;2023-12-20T08:15:52;26.13;;;3.60;;
36815;SDS011;71982;52.294;6.760;2023-12-20T08:18:21;23.20;;;4.13;;
36815;SDS011;71982;52.294;6.760;2023-12-20T08:20:48;25.65;;;4.55;;
36815;SDS011;71982;52.294;6.760;2023-12-20T08:23:16;24.52;;;4.80;;
36815;SDS011;71982;52.294;6.760;2023-12-20T08:25:43;30.48;;;4.85;;
36815;SDS011;71982;52.294;6.760;2023-12-20T08:28:10;30.77;;;4.72;;
36815;SDS011;71982;52.294;6.760;2023-12-20T08:30:36;26.50;;;5.38;;
36815;SDS011;71982;52.294;6.760;2023-12-20T08:33:03;22.33;;;4.32;;
36815;SDS011;71982;52.294;6.760;2023-12-20T08:35:32;20.88;;;4.75;;
36815;SDS011;71982;52.294;6.760;2023-12-20T08:37:59;29.65;;;5.38;;
36815;SDS011;71982;52.294;6.760;2023-12-20T08:40:27;21.20;;;4.03;;
36815;SDS011;71982;52.294;6.760;2023-12-20T08:42:54;31.38;;;4.95;;
36815;SDS011;71982;52.294;6.760;2023-12-20T08:45:21;28.65;;;3.50;;
36815;SDS011;71982;52.294;6.760;2023-12-20T08:47:48;25.77;;;4.03;;
36815;SDS011;71982;52.294;6.760;2023-12-20T08:50:14;35.80;;;6.40;;
36815;SDS011;71982;52.294;6.760;2023-12-20T08:52:41;23.92;;;4.13;;
36815;SDS011;71982;52.294;6.760;2023-12-20T08:55:08;30.33;;;5.32;;
36815;SDS011;71982;52.294;6.760;2023-12-20T08:57:37;27.45;;;4.60;;
36815;SDS011;71982;52.294;6.760;2023-12-20T09:00:04;29.98;;;6.03;;
36815;SDS011;71982;52.294;6.760;2023-12-20T09:02:32;29.83;;;5.45;;
36815;SDS011;71982;52.294;6.760;2023-12-20T09:05:01;33.00;;;4.95;;
36815;SDS011;71982;52.294;6.760;2023-12-20T09:07:28;34.78;;;7.03;;
36815;SDS011;71982;52.294;6.760;2023-12-20T09:09:56;36.78;;;5.03;;
36815;SDS011;71982;52.294;6.760;2023-12-20T09:12:23;31.80;;;5.43;;
36815;SDS011;71982;52.294;6.760;2023-12-20T09:14:52;24.33;;;4.65;;
36815;SDS011;71982;52.294;6.760;2023-12-20T09:17:19;25.42;;;5.55;;
36815;SDS011;71982;52.294;6.760;2023-12-20T09:19:48;27.10;;;5.38;;
36815;SDS011;71982;52.294;6.760;2023-12-20T09:22:15;23.90;;;4.30;;
36815;SDS011;71982;52.294;6.760;2023-12-20T09:24:42;27.33;;;4.72;;
36815;SDS011;71982;52.294;6.760;2023-12-20T09:27:09;26.65;;;5.00;;
36815;SDS011;71982;52.294;6.760;2023-12-20T09:29:36;40.28;;;5.00;;
36815;SDS011;71982;52.294;6.760;2023-12-20T09:32:05;35.88;;;7.03;;
36815;SDS011;71982;52.294;6.760;2023-12-20T09:34:32;29.88;;;5.47;;
36815;SDS011;71982;52.294;6.760;2023-12-20T09:36:58;33.75;;;6.20;;
36815;SDS011;71982;52.294;6.760;2023-12-20T09:39:25;28.02;;;5.05;;
36815;SDS011;71982;52.294;6.760;2023-12-20T09:41:56;22.52;;;6.20;;
36815;SDS011;71982;52.294;6.760;2023-12-20T09:44:27;26.30;;;4.95;;
36815;SDS011;71982;52.294;6.760;2023-12-20T09:46:54;34.58;;;5.40;;
36815;SDS011;71982;52.294;6.760;2023-12-20T09:49:23;26.08;;;5.82;;
36815;SDS011;71982;52.294;6.760;2023-12-20T09:51:51;28.88;;;5.47;;
36815;SDS011;71982;52.294;6.760;2023-12-20T09:54:19;34.45;;;5.25;;
36815;SDS011;71982;52.294;6.760;2023-12-20T09:56:47;37.78;;;7.75;;
36815;SDS011;71982;52.294;6.760;2023-12-20T09:59:14;31.88;;;6.50;;
36815;SDS011;71982;52.294;6.760;2023-12-20T10:01:41;34.00;;;5.53;;
36815;SDS011;71982;52.294;6.760;2023-12-20T10:04:10;30.02;;;5.32;;
36815;SDS011;71982;52.294;6.760;2023-12-20T10:06:40;30.48;;;5.93;;
36815;SDS011;71982;52.294;6.760;2023-12-20T10:09:08;34.03;;;5.78;;
36815;SDS011;71982;52.294;6.760;2023-12-20T10:11:36;26.98;;;5.20;;
36815;SDS011;71982;52.294;6.760;2023-12-20T10:14:03;32.83;;;5.20;;
36815;SDS011;71982;52.294;6.760;2023-12-20T10:16:31;26.88;;;6.28;;
36815;SDS011;71982;52.294;6.760;2023-12-20T10:18:58;33.33;;;6.47;;
36815;SDS011;71982;52.294;6.760;2023-12-20T10:21:27;37.63;;;6.97;;
36815;SDS011;71982;52.294;6.760;2023-12-20T10:23:55;31.90;;;5.35;;
36815;SDS011;71982;52.294;6.760;2023-12-20T10:26:23;27.50;;;4.82;;
36815;SDS011;71982;52.294;6.760;2023-12-20T10:28:52;29.02;;;4.55;;
36815;SDS011;71982;52.294;6.760;2023-12-20T10:31:26;21.52;;;6.18;;
36815;SDS011;71982;52.294;6.760;2023-12-20T10:33:55;27.00;;;5.07;;
36815;SDS011;71982;52.294;6.760;2023-12-20T10:36:23;36.95;;;7.93;;
36815;SDS011;71982;52.294;6.760;2023-12-20T10:38:52;30.50;;;6.10;;
36815;SDS011;71982;52.294;6.760;2023-12-20T10:41:22;24.55;;;5.22;;
36815;SDS011;71982;52.294;6.760;2023-12-20T10:43:52;20.55;;;5.72;;
36815;SDS011;71982;52.294;6.760;2023-12-20T10:46:21;28.23;;;6.05;;
36815;SDS011;71982;52.294;6.760;2023-12-20T10:48:48;24.70;;;4.60;;
36815;SDS011;71982;52.294;6.760;2023-12-20T10:51:18;26.30;;;5.35;;
36815;SDS011;71982;52.294;6.760;2023-12-20T10:53:46;20.65;;;5.07;;
36815;SDS011;71982;52.294;6.760;2023-12-20T10:56:15;28.13;;;6.00;;
36815;SDS011;71982;52.294;6.760;2023-12-20T10:58:44;28.15;;;5.07;;
36815;SDS011;71982;52.294;6.760;2023-12-20T11:01:12;24.27;;;4.25;;
36815;SDS011;71982;52.294;6.760;2023-12-20T11:03:40;21.95;;;3.97;;
36815;SDS011;71982;52.294;6.760;2023-12-20T11:08:45;26.75;;;6.03;;
36815;SDS011;71982;52.294;6.760;2023-12-20T11:11:19;25.88;;;4.45;;
36815;SDS011;71982;52.294;6.760;2023-12-20T11:13:55;29.17;;;4.50;;
36815;SDS011;71982;52.294;6.760;2023-12-20T11:16:26;29.45;;;4.65;;
36815;SDS011;71982;52.294;6.760;2023-12-20T11:18:53;26.83;;;4.88;;
36815;SDS011;71982;52.294;6.760;2023-12-20T11:21:20;26.52;;;4.88;;
36815;SDS011;71982;52.294;6.760;2023-12-20T11:48:18;27.20;;;6.82;;
36815;SDS011;71982;52.294;6.760;2023-12-20T11:50:47;12.13;;;2.80;;
36815;SDS011;71982;52.294;6.760;2023-12-20T11:53:14;10.00;;;1.90;;
36815;SDS011;71982;52.294;6.760;2023-12-20T11:55:47;8.85;;;1.80;;
36815;SDS011;71982;52.294;6.760;2023-12-20T11:58:14;14.80;;;2.88;;
36815;SDS011;71982;52.294;6.760;2023-12-20T12:00:41;6.25;;;1.60;;
36815;SDS011;71982;52.294;6.760;2023-12-20T12:03:08;8.50;;;1.85;;
36815;SDS011;71982;52.294;6.760;2023-12-20T12:05:37;11.80;;;1.80;;
36815;SDS011;71982;52.294;6.760;2023-12-20T12:08:04;11.27;;;1.60;;
36815;SDS011;71982;52.294;6.760;2023-12-20T12:10:31;7.78;;;1.65;;
36815;SDS011;71982;52.294;6.760;2023-12-20T12:12:58;10.60;;;3.28;;
36815;SDS011;71982;52.294;6.760;2023-12-20T12:15:25;14.10;;;2.33;;
36815;SDS011;71982;52.294;6.760;2023-12-20T12:17:53;9.02;;;1.98;;
36815;SDS011;71982;52.294;6.760;2023-12-20T12:23:29;9.95;;;3.05;;
36815;SDS011;71982;52.294;6.760;2023-12-20T12:25:56;7.40;;;2.08;;
36815;SDS011;71982;52.294;6.760;2023-12-20T12:28:25;11.40;;;2.45;;
36815;SDS011;71982;52.294;6.760;2023-12-20T12:30:56;11.15;;;2.40;;
36815;SDS011;71982;52.294;6.760;2023-12-20T12:33:24;9.27;;;2.33;;
36815;SDS011;71982;52.294;6.760;2023-12-20T12:35:52;11.07;;;3.03;;
36815;SDS011;71982;52.294;6.760;2023-12-20T12:38:20;17.27;;;3.40;;
36815;SDS011;71982;52.294;6.760;2023-12-20T12:40:47;9.85;;;2.70;;
36815;SDS011;71982;52.294;6.760;2023-12-20T12:43:15;13.02;;;2.95;;
36815;SDS011;71982;52.294;6.760;2023-12-20T12:45:42;11.10;;;2.30;;
36815;SDS011;71982;52.294;6.760;2023-12-20T12:48:09;9.73;;;2.80;;
36815;SDS011;71982;52.294;6.760;2023-12-20T12:50:35;11.13;;;2.45;;
36815;SDS011;71982;52.294;6.760;2023-12-20T12:53:07;6.93;;;1.85;;
36815;SDS011;71982;52.294;6.760;2023-12-20T12:55:37;6.82;;;1.85;;
36815;SDS011;71982;52.294;6.760;2023-12-20T12:58:05;13.27;;;3.35;;
36815;SDS011;71982;52.294;6.760;2023-12-20T13:00:35;12.77;;;1.83;;
36815;SDS011;71982;52.294;6.760;2023-12-20T13:03:02;12.35;;;2.40;;
36815;SDS011;71982;52.294;6.760;2023-12-20T13:05:30;13.68;;;2.40;;
36815;SDS011;71982;52.294;6.760;2023-12-20T13:07:59;15.63;;;2.90;;
36815;SDS011;71982;52.294;6.760;2023-12-20T13:10:28;16.90;;;3.08;;
36815;SDS011;71982;52.294;6.760;2023-12-20T13:12:55;11.48;;;2.13;;
36815;SDS011;71982;52.294;6.760;2023-12-20T13:15:23;9.45;;;2.17;;
36815;SDS011;71982;52.294;6.760;2023-12-20T13:17:50;8.30;;;2.17;;
36815;SDS011;71982;52.294;6.760;2023-12-20T13:20:20;11.45;;;1.80;;
36815;SDS011;71982;52.294;6.760;2023-12-20T13:22:47;6.78;;;2.25;;
36815;SDS011;71982;52.294;6.760;2023-12-20T13:25:17;9.07;;;3.63;;
36815;SDS011;71982;52.294;6.760;2023-12-20T13:28:02;12.35;;;2.30;;
36815;SDS011;71982;52.294;6.760;2023-12-20T13:30:29;15.80;;;2.75;;
36815;SDS011;71982;52.294;6.760;2023-12-20T13:32:56;14.20;;;4.10;;
36815;SDS011;71982;52.294;6.760;2023-12-20T13:35:24;16.98;;;3.28;;
36815;SDS011;71982;52.294;6.760;2023-12-20T13:37:51;15.27;;;3.58;;
36815;SDS011;71982;52.294;6.760;2023-12-20T13:40:18;14.30;;;3.55;;
36815;SDS011;71982;52.294;6.760;2023-12-20T13:42:45;18.58;;;3.00;;
36815;SDS011;71982;52.294;6.760;2023-12-20T13:45:17;19.17;;;3.45;;
36815;SDS011;71982;52.294;6.760;2023-12-20T13:47:43;9.55;;;2.38;;
36815;SDS011;71982;52.294;6.760;2023-12-20T13:50:10;8.80;;;2.30;;
36815;SDS011;71982;52.294;6.760;2023-12-20T13:52:37;10.68;;;2.72;;
36815;SDS011;71982;52.294;6.760;2023-12-20T13:55:04;13.63;;;2.72;;
36815;SDS011;71982;52.294;6.760;2023-12-20T13:57:32;15.98;;;2.92;;
36815;SDS011;71982;52.294;6.760;2023-12-20T14:00:02;9.70;;;2.67;;
36815;SDS011;71982;52.294;6.760;2023-12-20T14:02:31;13.15;;;2.88;;
36815;SDS011;71982;52.294;6.760;2023-12-20T14:04:58;15.95;;;4.65;;
36815;SDS011;71982;52.294;6.760;2023-12-20T14:07:25;14.50;;;5.93;;
36815;SDS011;71982;52.294;6.760;2023-12-20T14:09:54;23.50;;;7.47;;
36815;SDS011;71982;52.294;6.760;2023-12-20T14:12:21;20.20;;;6.97;;
36815;SDS011;71982;52.294;6.760;2023-12-20T14:14:48;13.23;;;5.63;;
36815;SDS011;71982;52.294;6.760;2023-12-20T14:17:15;20.98;;;5.82;;
36815;SDS011;71982;52.294;6.760;2023-12-20T14:19:43;15.43;;;7.30;;
36815;SDS011;71982;52.294;6.760;2023-12-20T14:22:10;12.98;;;4.65;;
36815;SDS011;71982;52.294;6.760;2023-12-20T14:24:37;13.65;;;4.10;;
36815;SDS011;71982;52.294;6.760;2023-12-20T14:27:04;24.17;;;5.40;;
36815;SDS011;71982;52.294;6.760;2023-12-20T14:29:31;25.48;;;4.35;;
36815;SDS011;71982;52.294;6.760;2023-12-20T14:31:57;23.23;;;4.50;;
36815;SDS011;71982;52.294;6.760;2023-12-20T14:34:26;22.40;;;5.70;;
36815;SDS011;71982;52.294;6.760;2023-12-20T14:36:54;17.95;;;4.00;;
36815;SDS011;71982;52.294;6.760;2023-12-20T14:39:24;23.55;;;5.07;;
36815;SDS011;71982;52.294;6.760;2023-12-20T14:41:51;30.00;;;4.88;;
36815;SDS011;71982;52.294;6.760;2023-12-20T14:44:17;23.42;;;4.90;;
36815;SDS011;71982;52.294;6.760;2023-12-20T14:46:44;34.50;;;5.30;;
36815;SDS011;71982;52.294;6.760;2023-12-20T14:49:11;21.63;;;4.80;;
36815;SDS011;71982;52.294;6.760;2023-12-20T14:51:39;23.35;;;5.13;;
36815;SDS011;71982;52.294;6.760;2023-12-20T14:54:07;31.83;;;4.82;;
36815;SDS011;71982;52.294;6.760;2023-12-20T14:56:35;22.25;;;4.10;;
36815;SDS011;71982;52.294;6.760;2023-12-20T14:59:02;21.80;;;4.13;;
36815;SDS011;71982;52.294;6.760;2023-12-20T15:01:29;22.23;;;5.07;;
36815;SDS011;71982;52.294;6.760;2023-12-20T15:04:03;25.00;;;4.38;;
36815;SDS011;71982;52.294;6.760;2023-12-20T15:06:53;22.20;;;3.08;;